KSLO

Salem-Leckrone Airport

Salem, Illinois, USA
METAR KSLO 140715Z AUTO 10004KT 10SM BKN050 OVC075 10/09 A3003 RMK AO2 T01010090
Observed Flight Rules
Dec-14 @ 07:15 UTC (27 minutes ago) Visual Flight Rules
Wind Visibility Clouds
100° at 4 knots 10 miles
  • Broken at 5,000' AGL
  • Overcast at 7,500' AGL
Temperatures Readings
Current 10°C / 50°F
Dewpoint 9°C / 48°F
Humidity 94%
Altimeter 30.03" Hg
Pressure 1017 hPa
Elevation 175
METAR KSLO 140715Z AUTO 10004KT 10SM BKN050 OVC075 10/09 A3003 RMK AO2 T01010090
Observed Flight Rules
Dec-14 @ 07:15 UTC
(27 minutes ago)
VFR
Wind Visibility
100° at 4 knots 10 miles
Clouds
  • Broken at 5,000' AGL
  • Overcast at 7,500' AGL
Temperature Dewpoint
10°C / 50°F 9°C / 48°F
Humidity Altimeter Pressure
94% 30.03" Hg 1017 hPa